BTI9UZ EYVI-EETN
Flight info
| Callsign | BTI9UZ |
|---|---|
| Flight time | 0h 49m |
| Altitude | 32000 |
| Route | ATMEZ DCT TAGOL DCT LUNIT DCT TUSAS DCT DOLAT DCT KEMET |
| Aircraft | A320/M-SDE3FGHIRWY/LB1 |
Departure
| Time | 2026-05-04 20:14 |
|---|---|
| Airport | Vilnius International Airport (EYVI) |
Arrival
| Time | 2026-05-04 21:03 |
|---|---|
| Airport | Lennart Meri Tallinn Airport (EETN) |
| Time | Latitude | Longitude | Altitude | Speed | Heading |
|---|---|---|---|---|---|
| 2026-05-04 19:52 | 54.64235 | 25.28203 | 637 ft | 0 kts | 360° |
| 2026-05-04 20:04 | 54.64212 | 25.28203 | 637 ft | 4 kts | 0° |
| 2026-05-04 20:04 | 54.64190 | 25.28203 | 638 ft | 4 kts | 5° |
| 2026-05-04 20:04 | 54.64169 | 25.28188 | 637 ft | 4 kts | 63° |
| 2026-05-04 20:04 | 54.64163 | 25.28157 | 640 ft | 0 kts | 78° |
| 2026-05-04 20:05 | 54.64167 | 25.28188 | 637 ft | 4 kts | 78° |
| 2026-05-04 20:05 | 54.64170 | 25.28219 | 642 ft | 4 kts | 78° |
| 2026-05-04 20:05 | 54.64174 | 25.28254 | 638 ft | 0 kts | 78° |
| 2026-05-04 20:09 | 54.64175 | 25.28255 | 638 ft | 0 kts | 78° |
| 2026-05-04 20:09 | 54.64169 | 25.28317 | 638 ft | 7 kts | 135° |
| 2026-05-04 20:09 | 54.64133 | 25.28335 | 639 ft | 5 kts | 158° |
| 2026-05-04 20:09 | 54.64118 | 25.28412 | 640 ft | 9 kts | 88° |
| 2026-05-04 20:10 | 54.64119 | 25.28549 | 643 ft | 14 kts | 89° |
| 2026-05-04 20:10 | 54.64098 | 25.28694 | 645 ft | 12 kts | 148° |
| 2026-05-04 20:10 | 54.64017 | 25.28689 | 642 ft | 13 kts | 198° |
| 2026-05-04 20:10 | 54.63876 | 25.28590 | 641 ft | 31 kts | 202° |
| 2026-05-04 20:11 | 54.63669 | 25.28447 | 621 ft | 30 kts | 202° |
| 2026-05-04 20:11 | 54.63470 | 25.28310 | 610 ft | 30 kts | 200° |
| 2026-05-04 20:11 | 54.63274 | 25.28173 | 618 ft | 30 kts | 202° |
| 2026-05-04 20:11 | 54.63072 | 25.28033 | 607 ft | 33 kts | 202° |
| 2026-05-04 20:12 | 54.62862 | 25.27887 | 602 ft | 30 kts | 202° |
| 2026-05-04 20:12 | 54.62661 | 25.27749 | 601 ft | 31 kts | 202° |
| 2026-05-04 20:12 | 54.62522 | 25.27667 | 604 ft | 12 kts | 173° |
| 2026-05-04 20:12 | 54.62463 | 25.27730 | 611 ft | 10 kts | 144° |
| 2026-05-04 20:13 | 54.62391 | 25.27833 | 609 ft | 10 kts | 118° |
| 2026-05-04 20:13 | 54.62415 | 25.27887 | 604 ft | 0 kts | 17° |
| 2026-05-04 20:13 | 54.62461 | 25.27918 | 602 ft | 26 kts | 21° |
| 2026-05-04 20:13 | 54.62880 | 25.28206 | 599 ft | 99 kts | 22° |
| 2026-05-04 20:14 | 54.63696 | 25.28771 | 644 ft | 149 kts | 20° |
| 2026-05-04 20:14 | 54.64601 | 25.29421 | 1277 ft | 139 kts | 19° |
| 2026-05-04 20:14 | 54.65512 | 25.30069 | 1777 ft | 142 kts | 17° |
| 2026-05-04 20:14 | 54.66496 | 25.30745 | 2009 ft | 164 kts | 17° |
| 2026-05-04 20:15 | 54.67628 | 25.31505 | 2193 ft | 187 kts | 17° |
| 2026-05-04 20:15 | 54.68899 | 25.32350 | 2569 ft | 206 kts | 17° |
| 2026-05-04 20:15 | 54.70318 | 25.33300 | 2940 ft | 230 kts | 17° |
| 2026-05-04 20:15 | 54.71867 | 25.34345 | 3429 ft | 248 kts | 13° |
| 2026-05-04 20:16 | 54.73610 | 25.34615 | 3907 ft | 257 kts | 348° |
| 2026-05-04 20:16 | 54.75407 | 25.34175 | 4686 ft | 264 kts | 346° |
| 2026-05-04 20:16 | 54.77251 | 25.33707 | 5483 ft | 271 kts | 346° |
| 2026-05-04 20:16 | 54.79134 | 25.33227 | 6281 ft | 277 kts | 345° |
| 2026-05-04 20:17 | 54.81062 | 25.32735 | 7067 ft | 282 kts | 345° |
| 2026-05-04 20:17 | 54.83013 | 25.32241 | 7919 ft | 284 kts | 345° |
| 2026-05-04 20:17 | 54.84971 | 25.31751 | 8815 ft | 285 kts | 345° |
| 2026-05-04 20:17 | 54.86939 | 25.31259 | 9694 ft | 287 kts | 345° |
| 2026-05-04 20:18 | 54.88934 | 25.30754 | 10302 ft | 297 kts | 345° |
| 2026-05-04 20:18 | 54.91057 | 25.30198 | 10531 ft | 320 kts | 345° |
| 2026-05-04 20:18 | 54.93339 | 25.29600 | 10760 ft | 342 kts | 345° |
| 2026-05-04 20:18 | 54.95731 | 25.28986 | 11283 ft | 351 kts | 346° |
| 2026-05-04 20:19 | 54.98166 | 25.28379 | 11957 ft | 356 kts | 346° |
| 2026-05-04 20:19 | 55.00633 | 25.27770 | 12674 ft | 360 kts | 346° |
| 2026-05-04 20:19 | 55.03125 | 25.27152 | 13360 ft | 364 kts | 346° |
| 2026-05-04 20:19 | 55.05643 | 25.26525 | 14005 ft | 367 kts | 346° |
| 2026-05-04 20:20 | 55.08183 | 25.25884 | 14607 ft | 371 kts | 346° |
| 2026-05-04 20:20 | 55.10748 | 25.25232 | 15199 ft | 374 kts | 346° |
| 2026-05-04 20:20 | 55.13340 | 25.24566 | 15787 ft | 378 kts | 346° |
| 2026-05-04 20:20 | 55.15955 | 25.23891 | 16372 ft | 382 kts | 346° |
| 2026-05-04 20:21 | 55.18596 | 25.23207 | 16953 ft | 386 kts | 346° |
| 2026-05-04 20:21 | 55.21265 | 25.22517 | 17529 ft | 389 kts | 346° |
| 2026-05-04 20:21 | 55.26677 | 25.21130 | 18615 ft | 397 kts | 346° |
| 2026-05-04 20:22 | 55.29425 | 25.20446 | 19138 ft | 401 kts | 348° |
| 2026-05-04 20:22 | 55.32245 | 25.20314 | 19685 ft | 411 kts | 357° |
| 2026-05-04 20:22 | 55.35110 | 25.20657 | 20210 ft | 414 kts | 358° |
| 2026-05-04 20:22 | 55.37993 | 25.21011 | 20711 ft | 417 kts | 358° |
| 2026-05-04 20:23 | 55.40901 | 25.21372 | 21195 ft | 420 kts | 358° |
| 2026-05-04 20:23 | 55.43830 | 25.21737 | 21676 ft | 424 kts | 358° |
| 2026-05-04 20:23 | 55.46782 | 25.22077 | 22160 ft | 425 kts | 355° |
| 2026-05-04 20:23 | 55.49730 | 25.21941 | 22581 ft | 425 kts | 350° |
| 2026-05-04 20:24 | 55.52696 | 25.21677 | 23015 ft | 428 kts | 350° |
| 2026-05-04 20:24 | 55.55683 | 25.21405 | 23443 ft | 431 kts | 350° |
| 2026-05-04 20:24 | 55.58688 | 25.21133 | 23832 ft | 434 kts | 350° |
| 2026-05-04 20:24 | 55.61715 | 25.20863 | 24197 ft | 436 kts | 350° |
| 2026-05-04 20:25 | 55.64711 | 25.20595 | 24556 ft | 438 kts | 349° |
| 2026-05-04 20:25 | 55.67761 | 25.20321 | 24915 ft | 440 kts | 349° |
| 2026-05-04 20:25 | 55.70825 | 25.20049 | 25270 ft | 442 kts | 349° |
| 2026-05-04 20:25 | 55.73899 | 25.19776 | 25623 ft | 443 kts | 349° |
| 2026-05-04 20:26 | 55.76988 | 25.19500 | 25972 ft | 445 kts | 349° |
| 2026-05-04 20:26 | 55.80085 | 25.19226 | 26313 ft | 447 kts | 349° |
| 2026-05-04 20:26 | 55.83196 | 25.18947 | 26650 ft | 448 kts | 349° |
| 2026-05-04 20:26 | 55.86316 | 25.18664 | 26972 ft | 450 kts | 349° |
| 2026-05-04 20:27 | 55.89452 | 25.18380 | 27308 ft | 452 kts | 349° |
| 2026-05-04 20:27 | 55.92600 | 25.18093 | 27602 ft | 454 kts | 349° |
| 2026-05-04 20:27 | 55.95759 | 25.17809 | 27896 ft | 456 kts | 349° |
| 2026-05-04 20:27 | 55.98932 | 25.17525 | 28185 ft | 457 kts | 349° |
| 2026-05-04 20:28 | 56.02119 | 25.17244 | 28463 ft | 459 kts | 349° |
| 2026-05-04 20:28 | 56.05316 | 25.16962 | 28750 ft | 461 kts | 349° |
| 2026-05-04 20:28 | 56.08525 | 25.16674 | 28998 ft | 463 kts | 349° |
| 2026-05-04 20:28 | 56.11747 | 25.16379 | 29241 ft | 464 kts | 349° |
| 2026-05-04 20:29 | 56.14978 | 25.16081 | 29485 ft | 465 kts | 349° |
| 2026-05-04 20:29 | 56.18210 | 25.15816 | 29824 ft | 466 kts | 350° |
| 2026-05-04 20:29 | 56.21458 | 25.15745 | 30135 ft | 467 kts | 352° |
| 2026-05-04 20:29 | 56.24711 | 25.15861 | 30428 ft | 468 kts | 354° |
| 2026-05-04 20:30 | 56.27919 | 25.16083 | 30715 ft | 468 kts | 354° |
| 2026-05-04 20:30 | 56.31167 | 25.16340 | 31006 ft | 467 kts | 354° |
| 2026-05-04 20:30 | 56.34407 | 25.16575 | 31302 ft | 465 kts | 354° |
| 2026-05-04 20:30 | 56.37638 | 25.16770 | 31599 ft | 464 kts | 354° |
| 2026-05-04 20:31 | 56.40862 | 25.16928 | 31809 ft | 463 kts | 353° |
| 2026-05-04 20:31 | 56.44075 | 25.17061 | 31856 ft | 461 kts | 353° |
| 2026-05-04 20:31 | 56.50446 | 25.16880 | 31850 ft | 455 kts | 348° |
| 2026-05-04 20:32 | 56.56764 | 25.16080 | 31850 ft | 456 kts | 348° |
| 2026-05-04 20:32 | 56.63099 | 25.15348 | 31887 ft | 456 kts | 348° |
| 2026-05-04 20:33 | 56.69422 | 25.14623 | 31838 ft | 455 kts | 348° |
| 2026-05-04 20:33 | 56.75730 | 25.13875 | 31835 ft | 454 kts | 348° |
| 2026-05-04 20:34 | 56.82038 | 25.13108 | 31843 ft | 454 kts | 348° |
| 2026-05-04 20:34 | 56.88341 | 25.12351 | 31830 ft | 454 kts | 348° |
| 2026-05-04 20:35 | 56.94646 | 25.11600 | 31824 ft | 454 kts | 348° |
| 2026-05-04 20:35 | 57.00953 | 25.10842 | 31821 ft | 454 kts | 348° |
| 2026-05-04 20:36 | 57.07255 | 25.10062 | 31857 ft | 454 kts | 348° |
| 2026-05-04 20:36 | 57.13558 | 25.09297 | 31836 ft | 454 kts | 349° |
| 2026-05-04 20:37 | 57.19858 | 25.08538 | 31854 ft | 454 kts | 349° |
| 2026-05-04 20:37 | 57.26152 | 25.07766 | 31846 ft | 453 kts | 349° |
| 2026-05-04 20:38 | 57.32396 | 25.06993 | 31844 ft | 452 kts | 349° |
| 2026-05-04 20:38 | 57.38673 | 25.06225 | 31862 ft | 452 kts | 349° |
| 2026-05-04 20:39 | 57.44941 | 25.05440 | 31838 ft | 451 kts | 349° |
| 2026-05-04 20:39 | 57.51205 | 25.04656 | 31834 ft | 451 kts | 349° |
| 2026-05-04 20:40 | 57.57460 | 25.03884 | 31829 ft | 450 kts | 350° |
| 2026-05-04 20:40 | 57.63709 | 25.03102 | 31825 ft | 450 kts | 349° |
| 2026-05-04 20:41 | 57.69956 | 25.02308 | 31850 ft | 450 kts | 350° |
| 2026-05-04 20:41 | 57.76198 | 25.01530 | 31840 ft | 449 kts | 350° |
| 2026-05-04 20:42 | 57.82436 | 25.00748 | 31855 ft | 448 kts | 350° |
| 2026-05-04 20:42 | 57.88645 | 24.99953 | 31850 ft | 447 kts | 350° |
| 2026-05-04 20:43 | 57.94843 | 24.99163 | 31848 ft | 446 kts | 350° |
| 2026-05-04 20:43 | 58.01008 | 24.98175 | 31736 ft | 441 kts | 344° |
| 2026-05-04 20:44 | 58.03963 | 24.96821 | 31478 ft | 435 kts | 338° |
| 2026-05-04 20:44 | 58.06915 | 24.95570 | 30656 ft | 438 kts | 349° |
| 2026-05-04 20:44 | 58.09976 | 24.95760 | 29453 ft | 442 kts | 1° |
| 2026-05-04 20:44 | 58.13019 | 24.96441 | 28141 ft | 438 kts | 1° |
| 2026-05-04 20:45 | 58.16033 | 24.97136 | 26890 ft | 435 kts | 1° |
| 2026-05-04 20:45 | 58.19025 | 24.97827 | 25752 ft | 431 kts | 1° |
| 2026-05-04 20:45 | 58.21917 | 24.98493 | 25123 ft | 416 kts | 0° |
| 2026-05-04 20:45 | 58.24742 | 24.99145 | 24532 ft | 405 kts | 0° |
| 2026-05-04 20:46 | 58.27578 | 24.99774 | 23932 ft | 404 kts | 360° |
| 2026-05-04 20:46 | 58.30325 | 25.00367 | 23363 ft | 402 kts | 360° |
| 2026-05-04 20:46 | 58.33104 | 25.00965 | 22717 ft | 403 kts | 360° |
| 2026-05-04 20:46 | 58.35882 | 25.01569 | 22170 ft | 401 kts | 360° |
| 2026-05-04 20:47 | 58.38647 | 25.02173 | 21633 ft | 399 kts | 360° |
| 2026-05-04 20:47 | 58.41395 | 25.02778 | 21127 ft | 396 kts | 360° |
| 2026-05-04 20:47 | 58.44124 | 25.03387 | 20627 ft | 394 kts | 360° |
| 2026-05-04 20:47 | 58.46836 | 25.03999 | 20155 ft | 391 kts | 360° |
| 2026-05-04 20:48 | 58.49532 | 25.04612 | 19675 ft | 389 kts | 359° |
| 2026-05-04 20:48 | 58.52205 | 25.05217 | 19226 ft | 386 kts | 359° |
| 2026-05-04 20:48 | 58.54865 | 25.05816 | 18763 ft | 384 kts | 359° |
| 2026-05-04 20:48 | 58.57507 | 25.06414 | 18297 ft | 382 kts | 359° |
| 2026-05-04 20:49 | 58.60145 | 25.07008 | 17794 ft | 381 kts | 359° |
| 2026-05-04 20:49 | 58.62773 | 25.07602 | 17298 ft | 379 kts | 359° |
| 2026-05-04 20:49 | 58.65383 | 25.08191 | 16803 ft | 377 kts | 359° |
| 2026-05-04 20:49 | 58.67976 | 25.08779 | 16314 ft | 375 kts | 359° |
| 2026-05-04 20:50 | 58.70564 | 25.09368 | 15819 ft | 374 kts | 359° |
| 2026-05-04 20:50 | 58.73143 | 25.09955 | 15313 ft | 373 kts | 359° |
| 2026-05-04 20:50 | 58.75718 | 25.10544 | 14789 ft | 372 kts | 360° |
| 2026-05-04 20:50 | 58.78289 | 25.11131 | 14273 ft | 372 kts | 360° |
| 2026-05-04 20:51 | 58.80858 | 25.11712 | 13755 ft | 372 kts | 360° |
| 2026-05-04 20:51 | 58.83418 | 25.12291 | 13310 ft | 368 kts | 360° |
| 2026-05-04 20:51 | 58.85933 | 25.12869 | 12923 ft | 362 kts | 0° |
| 2026-05-04 20:51 | 58.88430 | 25.13443 | 12409 ft | 361 kts | 0° |
| 2026-05-04 20:52 | 58.90925 | 25.14015 | 11858 ft | 360 kts | 0° |
| 2026-05-04 20:52 | 58.93407 | 25.14586 | 11322 ft | 359 kts | 0° |
| 2026-05-04 20:52 | 58.95878 | 25.15157 | 10787 ft | 357 kts | 0° |
| 2026-05-04 20:52 | 58.98308 | 25.15724 | 10596 ft | 345 kts | 0° |
| 2026-05-04 20:53 | 59.00615 | 25.16269 | 10460 ft | 332 kts | 0° |
| 2026-05-04 20:53 | 59.02864 | 25.16798 | 10339 ft | 320 kts | 360° |
| 2026-05-04 20:53 | 59.05035 | 25.17306 | 10207 ft | 309 kts | 359° |
| 2026-05-04 20:53 | 59.07147 | 25.17797 | 9974 ft | 303 kts | 359° |
| 2026-05-04 20:54 | 59.09220 | 25.18278 | 9913 ft | 300 kts | 359° |
| 2026-05-04 20:54 | 59.11309 | 25.18748 | 9482 ft | 303 kts | 359° |
| 2026-05-04 20:54 | 59.13387 | 25.19213 | 9118 ft | 299 kts | 359° |
| 2026-05-04 20:54 | 59.14793 | 25.19530 | 8765 ft | 299 kts | 360° |
| 2026-05-04 20:55 | 59.16831 | 25.20007 | 8201 ft | 292 kts | 0° |
| 2026-05-04 20:55 | 59.18833 | 25.20484 | 7702 ft | 287 kts | 0° |
| 2026-05-04 20:55 | 59.20780 | 25.20940 | 7269 ft | 284 kts | 0° |
| 2026-05-04 20:55 | 59.22759 | 25.21405 | 6826 ft | 282 kts | 1° |
| 2026-05-04 20:56 | 59.24670 | 25.21852 | 6388 ft | 279 kts | 1° |
| 2026-05-04 20:56 | 59.26623 | 25.22307 | 5933 ft | 280 kts | 1° |
| 2026-05-04 20:56 | 59.28542 | 25.22754 | 5630 ft | 273 kts | 1° |
| 2026-05-04 20:56 | 59.30362 | 25.23195 | 5501 ft | 261 kts | 1° |
| 2026-05-04 20:57 | 59.32135 | 25.23625 | 5251 ft | 254 kts | 1° |
| 2026-05-04 20:57 | 59.33862 | 25.23821 | 5032 ft | 248 kts | 355° |
| 2026-05-04 20:57 | 59.35562 | 25.23859 | 4676 ft | 239 kts | 355° |
| 2026-05-04 20:57 | 59.37160 | 25.23902 | 4522 ft | 221 kts | 355° |
| 2026-05-04 20:58 | 59.38654 | 25.23849 | 4267 ft | 206 kts | 342° |
| 2026-05-04 20:58 | 59.39914 | 25.22858 | 3982 ft | 191 kts | 319° |
| 2026-05-04 20:58 | 59.40772 | 25.21034 | 3628 ft | 175 kts | 295° |
| 2026-05-04 20:58 | 59.41147 | 25.18859 | 3408 ft | 166 kts | 275° |
| 2026-05-04 20:59 | 59.41179 | 25.16617 | 3190 ft | 161 kts | 270° |
| 2026-05-04 20:59 | 59.41192 | 25.14456 | 2984 ft | 157 kts | 270° |
| 2026-05-04 20:59 | 59.41204 | 25.12334 | 2772 ft | 154 kts | 270° |
| 2026-05-04 20:59 | 59.41215 | 25.10234 | 2561 ft | 153 kts | 270° |
| 2026-05-04 21:00 | 59.41225 | 25.08189 | 2362 ft | 147 kts | 270° |
| 2026-05-04 21:00 | 59.41235 | 25.06205 | 2151 ft | 144 kts | 269° |
| 2026-05-04 21:00 | 59.41245 | 25.04243 | 1946 ft | 144 kts | 269° |
| 2026-05-04 21:00 | 59.41254 | 25.02296 | 1778 ft | 142 kts | 268° |
| 2026-05-04 21:01 | 59.41262 | 25.00332 | 1578 ft | 144 kts | 269° |
| 2026-05-04 21:01 | 59.41271 | 24.98372 | 1368 ft | 139 kts | 268° |
| 2026-05-04 21:01 | 59.41279 | 24.96508 | 1155 ft | 134 kts | 268° |
| 2026-05-04 21:01 | 59.41287 | 24.94688 | 956 ft | 134 kts | 268° |
| 2026-05-04 21:02 | 59.41294 | 24.92868 | 767 ft | 132 kts | 268° |
| 2026-05-04 21:02 | 59.41299 | 24.91075 | 613 ft | 131 kts | 268° |
| 2026-05-04 21:02 | 59.41305 | 24.89294 | 441 ft | 130 kts | 268° |
| 2026-05-04 21:02 | 59.41312 | 24.87511 | 286 ft | 131 kts | 267° |
| 2026-05-04 21:03 | 59.41318 | 24.85759 | 166 ft | 119 kts | 271° |
| 2026-05-04 21:03 | 59.41322 | 24.84434 | 160 ft | 72 kts | 270° |
| 2026-05-04 21:03 | 59.41324 | 24.83683 | 164 ft | 47 kts | 270° |
| 2026-05-04 21:03 | 59.41325 | 24.83090 | 161 ft | 41 kts | 269° |
| 2026-05-04 21:04 | 59.41387 | 24.82599 | 161 ft | 32 kts | 294° |
| 2026-05-04 21:04 | 59.41472 | 24.82293 | 162 ft | 24 kts | 298° |
| 2026-05-04 21:04 | 59.41503 | 24.81979 | 162 ft | 24 kts | 271° |
| 2026-05-04 21:04 | 59.41504 | 24.81643 | 162 ft | 25 kts | 269° |
| 2026-05-04 21:05 | 59.41504 | 24.81302 | 162 ft | 25 kts | 271° |
| 2026-05-04 21:05 | 59.41506 | 24.80959 | 162 ft | 26 kts | 270° |
| 2026-05-04 21:05 | 59.41507 | 24.80617 | 162 ft | 23 kts | 272° |
| 2026-05-04 21:05 | 59.41527 | 24.80304 | 162 ft | 24 kts | 271° |
| 2026-05-04 21:06 | 59.41528 | 24.80144 | 162 ft | 10 kts | 270° |
| 2026-05-04 21:06 | 59.41547 | 24.80063 | 162 ft | 5 kts | 341° |
| 2026-05-04 21:06 | 59.41579 | 24.80063 | 162 ft | 3 kts | 1° |
| 2026-05-04 21:06 | 59.41585 | 24.80063 | 162 ft | 0 kts | 1° |